createdAt,value
2019-06-27T00:00:49.718Z,25.60
2019-06-27T00:03:18.879Z,25.50
2019-06-27T00:05:48.035Z,25.50
2019-06-27T00:08:17.187Z,25.40
2019-06-27T00:10:46.419Z,25.40
2019-06-27T00:13:15.484Z,25.40
2019-06-27T00:15:44.681Z,25.30
2019-06-27T00:18:13.799Z,25.30
2019-06-27T00:20:42.963Z,25.20
2019-06-27T00:23:12.111Z,25.20
2019-06-27T00:25:41.274Z,25.20
2019-06-27T00:28:10.398Z,25.20
2019-06-27T00:30:39.601Z,25.20
2019-06-27T00:33:08.875Z,25.10
2019-06-27T00:35:38.069Z,25.10
2019-06-27T00:38:07.231Z,25.10
2019-06-27T00:40:36.387Z,25.00
2019-06-27T00:43:05.521Z,25.00
2019-06-27T00:45:34.695Z,25.00
2019-06-27T00:48:03.845Z,24.90
2019-06-27T00:50:33.037Z,24.90
2019-06-27T00:53:02.200Z,24.90
2019-06-27T00:55:31.362Z,24.90
2019-06-27T00:58:00.586Z,24.90
2019-06-27T01:00:29.791Z,24.80
2019-06-27T01:02:58.937Z,24.80
2019-06-27T01:05:28.085Z,24.80
2019-06-27T01:07:57.245Z,24.80
2019-06-27T01:10:26.411Z,24.80
2019-06-27T01:12:55.535Z,24.70
2019-06-27T01:15:24.662Z,24.70
2019-06-27T01:17:53.830Z,24.70
2019-06-27T01:20:22.989Z,24.60
2019-06-27T01:22:52.152Z,24.60
2019-06-27T01:25:21.291Z,24.60
2019-06-27T01:27:50.457Z,24.60
2019-06-27T01:30:20.112Z,24.60
2019-06-27T01:32:49.353Z,24.60
2019-06-27T01:35:18.501Z,24.50
2019-06-27T01:37:47.658Z,24.40
2019-06-27T01:40:16.783Z,24.40
2019-06-27T01:42:45.951Z,24.40
2019-06-27T01:45:24.040Z,24.40
2019-06-27T01:47:53.244Z,24.30
2019-06-27T01:50:22.364Z,24.30
2019-06-27T01:52:51.521Z,24.30
2019-06-27T01:55:20.658Z,24.30
2019-06-27T01:57:49.813Z,24.20
2019-06-27T02:00:19.595Z,24.20
2019-06-27T02:02:48.819Z,24.20
2019-06-27T02:05:17.966Z,24.10
2019-06-27T02:07:47.114Z,24.10
2019-06-27T02:10:16.652Z,24.10
2019-06-27T02:12:45.810Z,24.10
2019-06-27T02:15:16.733Z,24.00
2019-06-27T02:17:45.927Z,24.00
2019-06-27T02:20:15.646Z,24.00
2019-06-27T02:22:44.819Z,24.00
2019-06-27T02:25:14.065Z,23.90
2019-06-27T02:27:43.318Z,23.90
2019-06-27T02:30:13.642Z,23.90
2019-06-27T02:32:42.785Z,23.90
2019-06-27T02:35:12.433Z,23.80
2019-06-27T02:37:41.630Z,23.80
2019-06-27T02:40:10.776Z,23.80
2019-06-27T02:42:40.041Z,23.80
2019-06-27T02:45:09.712Z,23.80
2019-06-27T02:47:38.863Z,23.80
2019-06-27T02:50:07.981Z,23.70
2019-06-27T02:52:37.131Z,23.70
2019-06-27T02:55:06.268Z,23.70
2019-06-27T02:57:35.424Z,23.60
2019-06-27T03:00:04.759Z,23.60
2019-06-27T03:02:33.944Z,23.60
2019-06-27T03:05:03.092Z,23.60
2019-06-27T03:07:32.465Z,23.50
2019-06-27T03:10:01.769Z,23.50
2019-06-27T03:12:30.946Z,23.50
2019-06-27T03:15:00.149Z,23.40
2019-06-27T03:17:29.370Z,23.40
2019-06-27T03:19:58.715Z,23.30
2019-06-27T03:22:27.881Z,23.30
2019-06-27T03:24:57.025Z,23.30
2019-06-27T03:27:26.188Z,23.20
2019-06-27T03:29:55.376Z,23.20
2019-06-27T03:32:24.626Z,23.20
2019-06-27T03:34:53.785Z,23.10
2019-06-27T03:37:22.980Z,23.10
2019-06-27T03:39:52.104Z,23.10
2019-06-27T03:42:21.302Z,23.00
2019-06-27T03:44:50.427Z,23.00
2019-06-27T03:47:19.562Z,23.00
2019-06-27T03:49:48.710Z,23.00
2019-06-27T03:52:17.855Z,23.00
2019-06-27T03:54:46.986Z,23.00
2019-06-27T03:57:16.147Z,23.00
2019-06-27T03:59:45.339Z,23.00
2019-06-27T04:02:14.557Z,23.00
2019-06-27T04:04:43.709Z,23.00
2019-06-27T04:07:12.847Z,22.90
2019-06-27T04:09:41.971Z,22.90
2019-06-27T04:12:11.120Z,22.90
2019-06-27T04:14:40.273Z,22.90
2019-06-27T04:17:09.464Z,22.90
2019-06-27T04:19:38.679Z,22.90
2019-06-27T04:22:07.837Z,22.90
2019-06-27T04:24:36.973Z,22.90
2019-06-27T04:27:06.233Z,22.80
2019-06-27T04:29:35.372Z,22.90
2019-06-27T04:32:04.581Z,22.90
2019-06-27T04:34:33.723Z,22.90
2019-06-27T04:37:02.951Z,22.90
2019-06-27T04:39:32.088Z,22.90
2019-06-27T04:42:01.207Z,23.00
2019-06-27T04:44:30.435Z,23.00
2019-06-27T04:46:59.669Z,23.10
2019-06-27T04:49:28.849Z,23.10
2019-06-27T04:51:57.978Z,23.10
2019-06-27T04:54:27.146Z,23.20
2019-06-27T04:56:56.276Z,23.20
2019-06-27T04:59:25.479Z,23.20
2019-06-27T05:01:54.620Z,23.20
2019-06-27T05:04:23.788Z,23.20
2019-06-27T05:06:52.919Z,23.20
2019-06-27T05:09:22.093Z,23.20
2019-06-27T05:11:51.201Z,23.20
2019-06-27T05:14:20.369Z,23.20
2019-06-27T05:16:49.530Z,23.20
2019-06-27T05:19:18.673Z,23.30
2019-06-27T05:21:47.833Z,23.30
2019-06-27T05:24:16.998Z,23.30
2019-06-27T05:26:46.135Z,23.40
2019-06-27T05:29:15.302Z,23.40
2019-06-27T05:31:44.443Z,23.40
2019-06-27T05:34:13.661Z,23.50
2019-06-27T05:36:42.783Z,23.60
2019-06-27T05:39:11.938Z,23.60
2019-06-27T05:41:41.173Z,23.70
2019-06-27T05:44:10.344Z,23.70
2019-06-27T05:46:39.539Z,23.80
2019-06-27T05:49:08.689Z,23.80
2019-06-27T05:51:38.209Z,23.90
2019-06-27T05:54:07.380Z,23.90
2019-06-27T05:56:36.587Z,23.90
2019-06-27T05:59:05.729Z,24.00
2019-06-27T06:01:34.884Z,24.10
2019-06-27T06:04:04.065Z,24.20
2019-06-27T06:06:33.250Z,24.30
2019-06-27T06:09:02.416Z,24.40
2019-06-27T06:11:31.562Z,24.50
2019-06-27T06:14:00.712Z,24.60
2019-06-27T06:16:29.854Z,24.60
2019-06-27T06:18:59.084Z,24.70
2019-06-27T06:21:28.212Z,24.80
2019-06-27T06:23:57.373Z,24.80
2019-06-27T06:26:26.516Z,24.90
2019-06-27T06:28:55.666Z,25.00
2019-06-27T06:31:25.086Z,25.00
2019-06-27T06:33:54.234Z,25.10
2019-06-27T06:36:23.399Z,25.20
2019-06-27T06:38:52.726Z,25.20
2019-06-27T06:41:21.860Z,25.20
2019-06-27T06:43:50.974Z,25.20
2019-06-27T06:46:20.133Z,25.20
2019-06-27T06:48:49.244Z,25.30
2019-06-27T06:51:18.445Z,25.40
2019-06-27T06:53:47.631Z,25.40
2019-06-27T06:56:16.769Z,25.50
2019-06-27T06:58:45.935Z,25.60
2019-06-27T07:01:15.148Z,25.70
2019-06-27T07:03:44.286Z,25.70
2019-06-27T07:06:13.534Z,25.80
2019-06-27T07:08:42.653Z,25.90
2019-06-27T07:11:11.868Z,25.90
2019-06-27T07:13:40.972Z,26.00
2019-06-27T07:16:10.104Z,25.90
2019-06-27T07:18:39.292Z,26.00
2019-06-27T07:21:08.492Z,26.00
2019-06-27T07:23:37.648Z,26.00
2019-06-27T07:26:06.795Z,26.00
2019-06-27T07:28:36.024Z,25.90
2019-06-27T07:31:17.173Z,26.00
2019-06-27T07:33:36.002Z,26.00
2019-06-27T07:36:05.215Z,26.20
2019-06-27T07:38:34.357Z,26.30
2019-06-27T07:41:03.486Z,26.50
2019-06-27T07:43:32.612Z,26.60
2019-06-27T07:46:01.724Z,26.70
2019-06-27T07:48:30.901Z,26.80
2019-06-27T07:51:00.060Z,27.00
2019-06-27T07:53:29.591Z,27.10
2019-06-27T07:55:58.736Z,27.20
2019-06-27T07:58:27.884Z,27.40
2019-06-27T08:00:57.042Z,27.50
2019-06-27T08:03:26.171Z,27.60
2019-06-27T08:05:55.332Z,27.70
2019-06-27T08:08:24.550Z,27.80
2019-06-27T08:10:53.723Z,27.90
2019-06-27T08:13:22.855Z,28.00
2019-06-27T08:15:52.062Z,28.10
2019-06-27T08:18:21.275Z,28.10
2019-06-27T08:20:50.420Z,28.10
2019-06-27T08:23:19.523Z,28.20
2019-06-27T08:25:48.758Z,28.30
2019-06-27T08:28:17.928Z,28.50
2019-06-27T08:30:47.096Z,28.50
2019-06-27T08:33:16.367Z,28.60
2019-06-27T08:35:45.684Z,28.60
2019-06-27T08:38:14.915Z,28.70
2019-06-27T08:40:44.134Z,28.80
2019-06-27T08:43:13.299Z,28.90
2019-06-27T08:45:42.479Z,29.00
2019-06-27T08:48:11.621Z,29.10
2019-06-27T08:50:40.811Z,29.20
2019-06-27T08:53:09.986Z,29.30
2019-06-27T08:55:39.208Z,29.40
2019-06-27T08:58:08.352Z,29.50
2019-06-27T09:00:37.475Z,29.60
2019-06-27T09:03:06.622Z,29.60
2019-06-27T09:05:35.809Z,29.60
2019-06-27T09:08:04.913Z,29.70
2019-06-27T09:10:34.071Z,29.80
2019-06-27T09:13:03.202Z,29.80
2019-06-27T09:15:32.338Z,29.90
2019-06-27T09:18:01.491Z,30.00
2019-06-27T09:20:30.721Z,30.00
2019-06-27T09:22:59.825Z,30.20
2019-06-27T09:25:28.980Z,30.30
2019-06-27T09:27:58.945Z,30.30
2019-06-27T09:30:28.251Z,30.30
2019-06-27T09:32:57.416Z,30.40
2019-06-27T09:35:26.557Z,30.40
2019-06-27T09:37:55.746Z,30.50
2019-06-27T09:40:24.959Z,30.70
2019-06-27T09:42:54.107Z,30.70
2019-06-27T09:45:24.015Z,30.70
2019-06-27T09:47:53.165Z,30.80
2019-06-27T09:50:22.395Z,30.80
2019-06-27T09:52:51.626Z,30.80
2019-06-27T09:55:20.854Z,31.00
2019-06-27T09:57:49.959Z,31.10
2019-06-27T10:00:20.023Z,31.30
2019-06-27T10:02:49.162Z,31.50
2019-06-27T10:05:18.394Z,31.60
2019-06-27T10:07:47.513Z,31.60
2019-06-27T10:10:16.885Z,31.70
2019-06-27T10:12:46.062Z,31.80
2019-06-27T10:15:15.211Z,31.90
2019-06-27T10:17:44.350Z,32.10
2019-06-27T10:20:13.734Z,32.30
2019-06-27T10:22:45.767Z,32.30
2019-06-27T10:25:14.958Z,32.40
2019-06-27T10:27:44.174Z,32.40
2019-06-27T10:30:13.929Z,32.40
2019-06-27T10:32:57.732Z,32.40
2019-06-27T10:35:13.955Z,32.50
2019-06-27T10:37:44.526Z,32.40
2019-06-27T10:40:14.161Z,32.50
2019-06-27T10:42:43.314Z,32.50
2019-06-27T10:45:13.083Z,32.70
2019-06-27T10:47:42.255Z,32.80
2019-06-27T10:50:12.463Z,32.90
2019-06-27T10:52:41.729Z,32.90
2019-06-27T10:55:12.102Z,33.20
2019-06-27T10:57:41.284Z,33.40
2019-06-27T11:00:11.219Z,33.50
2019-06-27T11:02:40.519Z,33.60
2019-06-27T11:05:10.008Z,33.60
2019-06-27T11:07:40.957Z,33.70
2019-06-27T11:10:11.410Z,33.70
2019-06-27T11:12:40.612Z,33.90
2019-06-27T11:15:10.705Z,34.10
2019-06-27T11:17:39.965Z,34.40
2019-06-27T11:20:09.821Z,34.40
2019-06-27T11:22:38.976Z,34.30
2019-06-27T11:25:08.361Z,34.30
2019-06-27T11:27:37.514Z,34.20
2019-06-27T11:30:07.239Z,34.40
2019-06-27T11:32:36.464Z,34.40
2019-06-27T11:35:06.323Z,34.70
2019-06-27T11:37:35.530Z,34.70
2019-06-27T11:40:05.366Z,34.70
2019-06-27T11:42:34.549Z,34.70
2019-06-27T11:45:04.190Z,34.80
2019-06-27T11:47:34.557Z,34.90
2019-06-27T11:50:04.055Z,34.90
2019-06-27T11:52:33.235Z,34.80
2019-06-27T11:55:02.394Z,34.80
2019-06-27T11:57:31.565Z,34.80
2019-06-27T12:00:00.713Z,34.80
2019-06-27T12:02:29.858Z,34.90
2019-06-27T12:04:59.152Z,35.00
2019-06-27T12:07:28.266Z,35.10
2019-06-27T12:09:57.457Z,35.10
2019-06-27T12:12:26.654Z,35.20
2019-06-27T12:14:55.842Z,35.30
2019-06-27T12:17:25.028Z,35.50
2019-06-27T12:19:54.195Z,35.70
2019-06-27T12:22:23.411Z,35.40
2019-06-27T12:24:52.658Z,35.40
2019-06-27T12:27:22.095Z,35.40
2019-06-27T12:29:51.263Z,35.30
2019-06-27T12:32:20.504Z,35.30
2019-06-27T12:34:49.757Z,35.40
2019-06-27T12:37:18.932Z,35.40
2019-06-27T12:39:48.086Z,35.70
2019-06-27T12:42:31.577Z,35.60
2019-06-27T12:44:49.372Z,35.60
2019-06-27T12:47:18.679Z,35.70
2019-06-27T12:50:01.330Z,35.80
2019-06-27T12:52:18.756Z,35.90
2019-06-27T12:54:47.945Z,35.70
2019-06-27T12:57:17.111Z,35.70
2019-06-27T12:59:46.265Z,35.90
2019-06-27T13:02:15.531Z,36.10
2019-06-27T13:04:44.835Z,36.00
2019-06-27T13:07:14.060Z,35.90
2019-06-27T13:09:43.331Z,36.10
2019-06-27T13:12:12.528Z,36.10
2019-06-27T13:14:41.742Z,36.20
2019-06-27T13:17:10.910Z,36.20
2019-06-27T13:19:40.156Z,36.20
2019-06-27T13:22:09.357Z,36.20
2019-06-27T13:24:38.831Z,36.20
2019-06-27T13:27:08.081Z,36.20
2019-06-27T13:29:38.398Z,36.20
2019-06-27T13:32:07.583Z,36.30
2019-06-27T13:34:40.818Z,36.60
2019-06-27T13:37:07.668Z,36.60
2019-06-27T13:39:36.843Z,36.80
2019-06-27T13:42:06.040Z,37.00
2019-06-27T13:44:35.298Z,36.90
2019-06-27T13:47:04.508Z,37.00
2019-06-27T13:49:33.758Z,37.10
2019-06-27T13:52:03.067Z,36.90
2019-06-27T13:54:32.270Z,36.80
2019-06-27T13:57:01.421Z,36.90
2019-06-27T13:59:30.572Z,37.00
2019-06-27T14:01:59.729Z,37.00
2019-06-27T14:04:28.906Z,37.00
2019-06-27T14:06:58.139Z,37.10
2019-06-27T14:09:27.338Z,37.00
2019-06-27T14:11:56.583Z,37.00
2019-06-27T14:14:25.901Z,37.10
2019-06-27T14:16:55.035Z,37.10
2019-06-27T14:19:24.266Z,37.20
2019-06-27T14:21:53.463Z,37.20
2019-06-27T14:24:22.718Z,37.20
2019-06-27T14:26:51.874Z,37.20
2019-06-27T14:29:21.058Z,37.30
2019-06-27T14:31:50.227Z,37.40
2019-06-27T14:34:19.430Z,37.60
2019-06-27T14:36:48.649Z,37.60
2019-06-27T14:39:17.803Z,37.60
2019-06-27T14:41:46.959Z,37.30
2019-06-27T14:44:16.142Z,37.40
2019-06-27T14:46:45.369Z,37.50
2019-06-27T14:49:20.047Z,37.60
2019-06-27T14:51:49.268Z,37.70
2019-06-27T14:54:18.538Z,37.80
2019-06-27T14:56:47.696Z,37.80
2019-06-27T14:59:16.957Z,37.60
2019-06-27T15:01:46.490Z,37.70
2019-06-27T15:04:15.771Z,37.80
2019-06-27T15:06:45.084Z,37.80
2019-06-27T15:09:14.379Z,37.90
2019-06-27T15:11:43.633Z,37.90
2019-06-27T15:14:12.761Z,38.00
2019-06-27T15:16:41.969Z,37.90
2019-06-27T15:19:11.143Z,37.80
2019-06-27T15:21:40.332Z,37.70
2019-06-27T15:24:09.472Z,37.80
2019-06-27T15:26:38.665Z,37.90
2019-06-27T15:29:07.939Z,37.90
2019-06-27T15:31:37.190Z,37.60
2019-06-27T15:34:06.693Z,37.70
2019-06-27T15:36:40.060Z,37.80
2019-06-27T15:39:11.830Z,37.80
2019-06-27T15:41:40.231Z,37.70
2019-06-27T15:44:09.540Z,37.80
2019-06-27T15:46:38.814Z,37.80
2019-06-27T15:49:08.019Z,37.70
2019-06-27T15:51:37.226Z,37.60
2019-06-27T15:54:07.133Z,37.60
2019-06-27T15:56:36.403Z,37.60
2019-06-27T15:59:05.623Z,37.70
2019-06-27T16:01:34.782Z,37.70
2019-06-27T16:04:04.067Z,37.70
2019-06-27T16:06:33.198Z,37.70
2019-06-27T16:09:02.639Z,37.70
2019-06-27T16:11:31.955Z,37.90
2019-06-27T16:14:01.356Z,37.70
2019-06-27T16:16:30.644Z,37.70
2019-06-27T16:18:59.902Z,37.70
2019-06-27T16:21:29.097Z,37.60
2019-06-27T16:23:58.373Z,37.60
2019-06-27T16:26:27.542Z,37.70
2019-06-27T16:28:56.782Z,37.60
2019-06-27T16:31:25.966Z,37.60
2019-06-27T16:33:55.115Z,37.50
2019-06-27T16:36:25.756Z,37.40
2019-06-27T16:38:55.265Z,37.40
2019-06-27T16:41:24.481Z,37.30
2019-06-27T16:43:53.686Z,37.30
2019-06-27T16:46:22.865Z,37.20
2019-06-27T16:48:52.158Z,37.20
2019-06-27T16:51:21.354Z,37.10
2019-06-27T16:53:50.542Z,37.10
2019-06-27T16:56:19.709Z,37.10
2019-06-27T16:58:48.914Z,37.00
2019-06-27T17:01:18.093Z,36.90
2019-06-27T17:03:47.292Z,36.80
2019-06-27T17:06:16.454Z,36.60
2019-06-27T17:08:45.601Z,36.50
2019-06-27T17:11:14.781Z,36.40
2019-06-27T17:13:43.976Z,36.40
2019-06-27T17:16:13.186Z,36.30
2019-06-27T17:18:42.407Z,36.30
2019-06-27T17:21:11.669Z,36.20
2019-06-27T17:23:40.859Z,36.10
2019-06-27T17:26:11.849Z,36.10
2019-06-27T17:28:41.068Z,36.00
2019-06-27T17:31:10.250Z,36.00
2019-06-27T17:33:39.554Z,35.90
2019-06-27T17:36:08.736Z,35.70
2019-06-27T17:38:38.060Z,35.50
2019-06-27T17:41:08.307Z,35.20
2019-06-27T17:43:37.472Z,35.10
2019-06-27T17:46:06.622Z,34.80
2019-06-27T17:48:35.935Z,34.60
2019-06-27T17:51:07.887Z,34.30
2019-06-27T17:53:35.985Z,34.10
2019-06-27T17:56:05.126Z,33.70
2019-06-27T17:58:34.326Z,33.40
2019-06-27T18:01:03.547Z,33.00
2019-06-27T18:03:32.747Z,32.70
2019-06-27T18:06:01.948Z,32.50
2019-06-27T18:08:31.105Z,32.30
2019-06-27T18:11:00.319Z,32.10
2019-06-27T18:13:29.479Z,32.00
2019-06-27T18:15:58.751Z,31.80
2019-06-27T18:18:27.985Z,31.50
2019-06-27T18:20:57.259Z,31.40
2019-06-27T18:23:26.445Z,31.20
2019-06-27T18:25:55.655Z,31.00
2019-06-27T18:28:28.047Z,30.90
2019-06-27T18:30:57.253Z,30.50
2019-06-27T18:33:26.545Z,30.30
2019-06-27T18:35:55.720Z,30.20
2019-06-27T18:38:24.893Z,29.90
2019-06-27T18:40:54.130Z,29.60
2019-06-27T18:43:23.503Z,29.40
2019-06-27T18:45:52.688Z,29.20
2019-06-27T18:48:21.983Z,29.10
2019-06-27T18:50:53.667Z,29.00
2019-06-27T18:53:22.839Z,28.90
2019-06-27T18:55:52.014Z,28.80
2019-06-27T18:58:21.221Z,28.60
2019-06-27T19:00:50.349Z,28.50
2019-06-27T19:03:19.621Z,28.40
2019-06-27T19:05:48.798Z,28.30
2019-06-27T19:08:17.999Z,28.20
2019-06-27T19:10:47.437Z,28.10
2019-06-27T19:13:17.749Z,28.10
2019-06-27T19:15:46.917Z,28.00
2019-06-27T19:18:33.721Z,28.00
2019-06-27T19:21:05.677Z,27.90
2019-06-27T19:23:47.147Z,27.80
2019-06-27T19:26:16.373Z,27.80
2019-06-27T19:28:45.567Z,27.70
2019-06-27T19:31:14.832Z,27.60
2019-06-27T19:33:43.985Z,27.50
2019-06-27T19:36:13.385Z,27.40
2019-06-27T19:38:42.648Z,27.40
2019-06-27T19:41:11.897Z,27.30
2019-06-27T19:43:41.064Z,27.30
2019-06-27T19:46:11.855Z,27.20
2019-06-27T19:48:41.070Z,27.10
2019-06-27T19:51:10.310Z,27.00
2019-06-27T19:53:39.498Z,27.00
2019-06-27T19:56:08.654Z,26.90
2019-06-27T19:58:37.830Z,26.80
2019-06-27T20:01:06.972Z,26.80
2019-06-27T20:03:36.139Z,26.70
2019-06-27T20:06:05.332Z,26.70
2019-06-27T20:08:36.640Z,26.60
2019-06-27T20:11:05.602Z,26.50
2019-06-27T20:13:34.732Z,26.40
2019-06-27T20:16:04.004Z,26.30
2019-06-27T20:18:33.199Z,26.30
2019-06-27T20:21:03.170Z,26.20
2019-06-27T20:23:32.317Z,26.20
2019-06-27T20:26:03.842Z,26.00
2019-06-27T20:28:32.610Z,26.00
2019-06-27T20:31:01.889Z,25.90
2019-06-27T20:33:31.195Z,25.90
2019-06-27T20:36:00.575Z,25.80
2019-06-27T20:38:34.782Z,25.70
2019-06-27T20:41:00.736Z,25.60
2019-06-27T20:43:29.997Z,25.60
2019-06-27T20:45:59.284Z,25.50
2019-06-27T20:48:28.507Z,25.40
2019-06-27T20:50:57.719Z,25.40
2019-06-27T20:53:26.944Z,25.20
2019-06-27T20:55:56.273Z,25.20
2019-06-27T20:58:25.758Z,25.10
2019-06-27T21:01:04.939Z,25.10
2019-06-27T21:03:34.210Z,25.00
2019-06-27T21:06:03.476Z,25.00
2019-06-27T21:08:32.797Z,24.90
2019-06-27T21:11:02.084Z,24.90
2019-06-27T21:13:31.288Z,24.80
2019-06-27T21:16:00.480Z,24.80
2019-06-27T21:18:29.872Z,24.80
2019-06-27T21:20:59.019Z,24.80
2019-06-27T21:23:28.172Z,24.70
2019-06-27T21:25:57.333Z,24.60
2019-06-27T21:28:26.490Z,24.60
2019-06-27T21:30:55.745Z,24.50
2019-06-27T21:33:24.990Z,24.40
2019-06-27T21:35:54.153Z,24.40
2019-06-27T21:38:23.300Z,24.20
2019-06-27T21:40:52.499Z,24.20
2019-06-27T21:43:21.661Z,24.10
2019-06-27T21:45:50.914Z,24.10
2019-06-27T21:48:20.046Z,24.00
2019-06-27T21:50:49.228Z,23.90
2019-06-27T21:53:18.407Z,23.90
2019-06-27T21:55:47.563Z,23.80
2019-06-27T21:58:16.821Z,23.70
2019-06-27T22:00:45.978Z,23.70
2019-06-27T22:03:15.140Z,23.60
2019-06-27T22:05:44.363Z,23.50
2019-06-27T22:08:13.542Z,23.50
2019-06-27T22:10:42.750Z,23.40
2019-06-27T22:13:11.888Z,23.30
2019-06-27T22:15:41.125Z,23.20
2019-06-27T22:18:10.304Z,23.20
2019-06-27T22:20:39.831Z,23.10
2019-06-27T22:23:09.219Z,23.10
2019-06-27T22:25:40.843Z,23.00
2019-06-27T22:28:09.243Z,22.90
2019-06-27T22:30:38.458Z,22.90
2019-06-27T22:33:07.669Z,22.80
2019-06-27T22:35:36.845Z,22.80
2019-06-27T22:38:23.849Z,22.80
2019-06-27T22:41:10.856Z,22.70
2019-06-27T22:43:57.919Z,22.70
2019-06-27T22:46:44.965Z,22.60
2019-06-27T22:49:15.117Z,22.60
2019-06-27T22:52:03.844Z,22.50
2019-06-27T22:54:34.071Z,22.50
2019-06-27T22:57:03.214Z,22.50
2019-06-27T22:59:32.336Z,22.40
2019-06-27T23:02:01.504Z,22.40
2019-06-27T23:04:30.637Z,22.30
2019-06-27T23:06:59.816Z,22.20
2019-06-27T23:09:29.034Z,22.10
2019-06-27T23:11:58.218Z,22.10
2019-06-27T23:14:27.341Z,22.00
2019-06-27T23:16:56.522Z,21.90
2019-06-27T23:19:25.755Z,21.80
2019-06-27T23:21:54.904Z,21.70
2019-06-27T23:24:24.039Z,21.60
2019-06-27T23:26:53.293Z,21.40
2019-06-27T23:29:22.560Z,21.30
2019-06-27T23:31:51.723Z,21.30
2019-06-27T23:34:20.887Z,21.20
2019-06-27T23:36:50.029Z,21.10
2019-06-27T23:39:19.279Z,21.00
2019-06-27T23:41:48.432Z,20.90
2019-06-27T23:44:17.576Z,20.80
2019-06-27T23:46:46.739Z,20.80
2019-06-27T23:49:15.872Z,20.70
2019-06-27T23:51:45.005Z,20.60
2019-06-27T23:54:14.152Z,20.50
2019-06-27T23:56:43.288Z,20.40
2019-06-27T23:59:12.434Z,20.30
